Historyczne dane pomiarowe

Dodano dane terminowe – wersja testowa.

Dane z okresu 1951-2019

Wersja bazy: 1.34 [2019-03-16, lista zmian], aktualizacja planowana na 2019-04-15

Dane meteo z obszaru Polski uzyskane na podstawie danych udostępnionych przez Instytut Meteorologii i Gospodarki Wodnej – Państwowy Instytut Badawczy.

 

Wybierz Datę:    

       

TemperaturaWilgotnośćWiatrCiśnienieOpadyŚniegCzas trwania zjawisk
 Stacja t tx tn tng RH VA  wxwx mslp ppp RRR   cm mm wxwxwxwxwxwxwx
1956-11-09 -1.7 0.6 -3.2 -2.9 78.0- 6.0 1.7---- 0.0-- 2---------
1956-11-08 0.2 2.8 -1.4 -4.8 94.8- 7.3 2.0---- 2.0-- 2---------
1956-11-07 1.1 3.5 0.3 -2.2 82.0- 6.3 7.0---- 4.9------------
1956-11-06 1.8 4.1 0.6 0.2 69.8- 3.7 7.7---- 0.0------------
1956-11-05 4.5 8.9 1.3 2.4 73.3- 6.0 6.7---- 1.3------------
1956-11-04 3.0 6.0 0.6 -1.7 70.3- 6.0 5.0---- 0.0------------
1956-11-03 2.1 5.8 0.8 -1.6 76.3- 4.7 3.3---- 0.0------------
1956-11-02 2.1 5.8 0.4 -2.3 70.5- 5.0 5.0---- 0.0------------
1956-11-01 3.6 4.7 -0.1 -5.1 89.8- 7.7 6.7---- 3.6------------
1956-10-31 -1.5 1.2 -6.5 -9.0 77.0- 3.7 2.0---- 0.0------------
1956-10-30 -1.0 0.9 -2.1 -0.9 79.5- 6.3 6.0---- 0.0------------
1956-10-29 1.2 6.3 0.0 2.2 91.3- 8.0 7.0---- 5.5------------
1956-10-28 6.8 9.5 5.8 6.9 90.5- 8.0 5.3---- 2.4------------
1956-10-27 8.0 9.9 6.1 3.4 88.0- 8.0 6.7---- 21.1------------
1956-10-26 7.1 9.6 5.4 4.0 82.8- 8.0 0.7---- 0.4------------
1956-10-25 11.0 15.0 8.8 10.4 81.0- 6.0 3.7---- 2.4------------
1956-10-24 13.0 14.5 10.0 9.4 82.5- 7.0 5.3---- 0.0------------
1956-10-23 11.3 13.0 9.6 9.1 73.8- 7.3 4.3---- 0.0------------
1956-10-22 12.5 14.6 11.9 10.5 71.5- 6.7 5.7---- 0.0------------
1956-10-21 13.1 14.8 9.7 7.0 81.5- 6.7 4.3---- 0.0------------
1956-10-20 9.8 11.9 7.7 4.5 91.3- 6.7 2.7---- 0.8------------
1956-10-19 10.7 13.5 8.7 10.8 84.0- 7.7 5.0---- 0.0------------
1956-10-18 12.0 15.4 7.4 5.4 88.8- 7.3 3.3---- 0.7------------
1956-10-17 9.1 14.8 3.0 -0.5 68.5- 2.3 3.0---- 0.0------------
1956-10-16 7.2 13.2 3.8 1.0 87.3- 4.7 0.7---- 0.0------------
1956-10-15 6.3 11.2 4.5 2.6 82.3- 0.3 5.0---- 0.0------------
1956-10-14 7.4 11.3 6.1 4.2 71.5- 0.7 7.3---- 0.0------------
1956-10-13 10.5 12.6 9.9 8.4 78.3- 7.0 12.3---- 13.4------------
1956-10-12 11.3 13.4 10.0 7.3 80.0- 7.7 6.7---- 0.0------------
1956-10-11 11.4 13.4 7.6 5.8 81.5- 6.0 6.7---- 0.0------------
1956-10-10 7.4 10.3 3.0 -0.8 71.0- 4.7 5.7---- 0.0------------
1956-10-09 8.5 11.3 5.6 4.5 72.8- 4.7 7.7---- 0.0------------
1956-10-08 6.3 10.0 5.1 3.0 78.5- 7.3 5.0---- 0.4------------
1956-10-07 7.5 11.7 5.7 6.4 82.8- 5.0 8.0---- 0.6------------
1956-10-06 8.3 10.4 5.0 1.5 80.0- 7.7 3.0---- 2.1------------
1956-10-05 8.4 12.3 6.9 5.9 86.0- 4.7 2.3---- 0.0------------
1956-10-04 10.2 15.4 5.7 3.5 85.8- 3.7 1.7---- 1.8------------
1956-10-03 12.1 16.5 9.4 10.7 84.8- 5.0 3.7---- 2.2------------
1956-10-02 14.7 21.4 9.7 6.4 86.5- 5.0 2.3---- 23.6------------
1956-10-01 14.5 18.3 9.3 4.5 80.8- 5.3 4.0---- 6.8------------
1956-09-30 14.0 19.2 11.3 8.7 73.0- 1.3 4.3---- 0.0------------
1956-09-29 14.6 18.3 13.0 11.9 72.0- 1.3 7.0---- 0.0------------
1956-09-28 16.3 19.0 14.9 13.2 77.0- 7.3 5.3---- 0.1------------
1956-09-27 16.4 22.0 9.6 5.2 76.3- 2.0 3.0---- 0.0------------
1956-09-26 14.0 22.9 6.9 2.4 76.8- 0.0 1.7---- 0.0------------
1956-09-25 10.2 18.4 1.7 -2.4 77.0- 0.0 1.3---- 0.0------------
1956-09-24 9.2 15.6 4.5 0.8 67.3- 1.0 2.0---- 0.0------------
1956-09-23 10.3 14.8 5.8 1.6 75.5- 2.0 1.7---- 0.0------------
1956-09-22 12.4 17.1 6.5 2.8 87.5- 0.7 1.3---- 0.0------------
1956-09-21 10.9 18.3 6.1 2.4 80.3- 0.3 0.0---- 0.0------------
1956-09-20 11.2 17.0 7.9 3.7 78.5- 4.7 1.7---- 0.0------------
1956-09-19 10.2 16.0 6.3 3.5 80.8- 2.0 0.7---- 0.0------------
1956-09-18 10.0 14.2 8.4 6.7 85.0- 3.3 3.3---- 0.0------------
1956-09-17 10.6 14.9 6.9 6.0 69.0- 4.3 8.3---- 3.9------------
1956-09-16 10.5 15.0 8.9 5.7 78.3- 5.0 6.0---- 1.3------------
1956-09-15 12.2 16.2 9.7 4.9 72.5- 2.3 6.7---- 0.0------------
1956-09-14 11.1 16.2 6.5 3.9 85.8- 4.0 0.3---- 0.5------------
1956-09-13 8.5 12.3 6.7 6.4 88.5- 3.7 4.0---- 0.7------------
1956-09-12 11.6 16.3 8.8 10.4 74.8- 5.3 8.0---- 0.5------------
1956-09-11 13.5 18.2 11.7 10.3 88.0- 5.7 0.0---- 8.1------------
204.8 ms

 

Źródłem pochodzenia danych jest Instytut Meteorologii i Gospodarki Wodnej – Państwowy Instytut Badawczy. Dane Instytutu Meteorologii i Gospodarki Wodnej – Państwowego Instytutu Badawczego zostały przetworzone.

Dane źródłowe można odnaleźć na stronie https://dane.imgw.pl